sensor_id;sensor_type;location;lat;lon;timestamp;P1;durP1;ratioP1;P2;durP2;ratioP2
64282;SDS011;50497;50.720;-2.084;2022-07-17T00:01:33;9.15;;;5.72;;
64282;SDS011;50497;50.720;-2.084;2022-07-17T00:03:59;10.27;;;5.22;;
64282;SDS011;50497;50.720;-2.084;2022-07-17T00:06:25;9.40;;;5.78;;
64282;SDS011;50497;50.720;-2.084;2022-07-17T00:08:50;9.82;;;6.05;;
64282;SDS011;50497;50.720;-2.084;2022-07-17T00:11:16;10.43;;;5.72;;
64282;SDS011;50497;50.720;-2.084;2022-07-17T00:13:41;9.63;;;5.55;;
64282;SDS011;50497;50.720;-2.084;2022-07-17T00:16:07;9.35;;;5.70;;
64282;SDS011;50497;50.720;-2.084;2022-07-17T00:18:33;9.48;;;5.57;;
64282;SDS011;50497;50.720;-2.084;2022-07-17T00:20:59;10.55;;;5.78;;
64282;SDS011;50497;50.720;-2.084;2022-07-17T00:23:25;10.18;;;6.05;;
64282;SDS011;50497;50.720;-2.084;2022-07-17T00:25:50;9.55;;;5.82;;
64282;SDS011;50497;50.720;-2.084;2022-07-17T00:28:16;10.57;;;5.70;;
64282;SDS011;50497;50.720;-2.084;2022-07-17T00:30:42;9.57;;;6.13;;
64282;SDS011;50497;50.720;-2.084;2022-07-17T00:33:08;9.35;;;5.82;;
64282;SDS011;50497;50.720;-2.084;2022-07-17T00:35:33;9.48;;;5.07;;
64282;SDS011;50497;50.720;-2.084;2022-07-17T00:38:00;9.90;;;5.82;;
64282;SDS011;50497;50.720;-2.084;2022-07-17T00:40:26;8.93;;;5.68;;
64282;SDS011;50497;50.720;-2.084;2022-07-17T00:42:52;9.55;;;5.78;;
64282;SDS011;50497;50.720;-2.084;2022-07-17T00:45:18;9.45;;;5.63;;
64282;SDS011;50497;50.720;-2.084;2022-07-17T00:48:03;9.73;;;5.70;;
64282;SDS011;50497;50.720;-2.084;2022-07-17T00:50:48;10.20;;;5.55;;
64282;SDS011;50497;50.720;-2.084;2022-07-17T00:53:13;9.85;;;5.63;;
64282;SDS011;50497;50.720;-2.084;2022-07-17T00:55:39;10.80;;;6.00;;
64282;SDS011;50497;50.720;-2.084;2022-07-17T00:58:06;11.48;;;5.30;;
64282;SDS011;50497;50.720;-2.084;2022-07-17T01:00:35;8.60;;;4.97;;
64282;SDS011;50497;50.720;-2.084;2022-07-17T01:03:00;10.23;;;5.75;;
64282;SDS011;50497;50.720;-2.084;2022-07-17T01:05:26;10.32;;;5.63;;
64282;SDS011;50497;50.720;-2.084;2022-07-17T01:07:52;8.65;;;5.10;;
64282;SDS011;50497;50.720;-2.084;2022-07-17T01:10:18;9.68;;;5.72;;
64282;SDS011;50497;50.720;-2.084;2022-07-17T01:12:45;10.52;;;5.68;;
64282;SDS011;50497;50.720;-2.084;2022-07-17T01:15:12;10.55;;;5.75;;
64282;SDS011;50497;50.720;-2.084;2022-07-17T01:17:40;11.80;;;5.93;;
64282;SDS011;50497;50.720;-2.084;2022-07-17T01:20:07;9.70;;;5.65;;
64282;SDS011;50497;50.720;-2.084;2022-07-17T01:22:41;8.93;;;5.47;;
64282;SDS011;50497;50.720;-2.084;2022-07-17T01:25:07;10.50;;;5.55;;
64282;SDS011;50497;50.720;-2.084;2022-07-17T01:27:33;9.23;;;5.80;;
64282;SDS011;50497;50.720;-2.084;2022-07-17T01:29:58;9.93;;;5.85;;
64282;SDS011;50497;50.720;-2.084;2022-07-17T01:32:33;10.82;;;6.13;;
64282;SDS011;50497;50.720;-2.084;2022-07-17T01:35:00;10.80;;;6.20;;
64282;SDS011;50497;50.720;-2.084;2022-07-17T01:37:27;10.73;;;5.90;;
64282;SDS011;50497;50.720;-2.084;2022-07-17T01:39:54;11.45;;;5.90;;
64282;SDS011;50497;50.720;-2.084;2022-07-17T01:42:23;12.10;;;6.25;;
64282;SDS011;50497;50.720;-2.084;2022-07-17T01:44:51;9.13;;;5.82;;
64282;SDS011;50497;50.720;-2.084;2022-07-17T01:47:18;11.13;;;6.35;;
64282;SDS011;50497;50.720;-2.084;2022-07-17T01:52:11;9.77;;;5.25;;
64282;SDS011;50497;50.720;-2.084;2022-07-17T01:54:37;9.60;;;6.10;;
64282;SDS011;50497;50.720;-2.084;2022-07-17T01:57:02;10.32;;;6.20;;
64282;SDS011;50497;50.720;-2.084;2022-07-17T01:59:28;10.27;;;6.10;;
64282;SDS011;50497;50.720;-2.084;2022-07-17T02:01:54;10.10;;;5.88;;
64282;SDS011;50497;50.720;-2.084;2022-07-17T02:04:19;10.38;;;6.00;;
64282;SDS011;50497;50.720;-2.084;2022-07-17T02:06:45;11.02;;;5.97;;
64282;SDS011;50497;50.720;-2.084;2022-07-17T02:09:11;9.80;;;5.78;;
64282;SDS011;50497;50.720;-2.084;2022-07-17T02:11:36;10.13;;;5.78;;
64282;SDS011;50497;50.720;-2.084;2022-07-17T02:14:02;13.38;;;6.63;;
64282;SDS011;50497;50.720;-2.084;2022-07-17T02:16:28;12.20;;;6.90;;
64282;SDS011;50497;50.720;-2.084;2022-07-17T02:18:54;10.25;;;6.32;;
64282;SDS011;50497;50.720;-2.084;2022-07-17T02:21:19;11.18;;;6.53;;
64282;SDS011;50497;50.720;-2.084;2022-07-17T02:23:45;11.07;;;6.10;;
64282;SDS011;50497;50.720;-2.084;2022-07-17T02:26:11;12.38;;;6.18;;
64282;SDS011;50497;50.720;-2.084;2022-07-17T02:28:36;10.02;;;5.72;;
64282;SDS011;50497;50.720;-2.084;2022-07-17T02:31:02;10.15;;;5.75;;
64282;SDS011;50497;50.720;-2.084;2022-07-17T02:33:28;10.32;;;5.57;;
64282;SDS011;50497;50.720;-2.084;2022-07-17T02:35:53;9.23;;;5.22;;
64282;SDS011;50497;50.720;-2.084;2022-07-17T02:38:19;8.73;;;5.20;;
64282;SDS011;50497;50.720;-2.084;2022-07-17T02:40:44;10.43;;;5.65;;
64282;SDS011;50497;50.720;-2.084;2022-07-17T02:43:10;10.32;;;5.55;;
64282;SDS011;50497;50.720;-2.084;2022-07-17T02:45:36;9.00;;;5.15;;
64282;SDS011;50497;50.720;-2.084;2022-07-17T02:48:01;10.73;;;5.25;;
64282;SDS011;50497;50.720;-2.084;2022-07-17T02:50:27;10.40;;;5.78;;
64282;SDS011;50497;50.720;-2.084;2022-07-17T02:52:53;10.15;;;5.72;;
64282;SDS011;50497;50.720;-2.084;2022-07-17T02:55:19;9.68;;;5.57;;
64282;SDS011;50497;50.720;-2.084;2022-07-17T02:57:45;10.20;;;5.63;;
64282;SDS011;50497;50.720;-2.084;2022-07-17T03:00:13;10.00;;;5.70;;
64282;SDS011;50497;50.720;-2.084;2022-07-17T03:02:41;10.70;;;5.95;;
64282;SDS011;50497;50.720;-2.084;2022-07-17T03:05:10;10.63;;;5.25;;
64282;SDS011;50497;50.720;-2.084;2022-07-17T03:07:37;8.85;;;5.35;;
64282;SDS011;50497;50.720;-2.084;2022-07-17T03:10:03;10.23;;;5.78;;
64282;SDS011;50497;50.720;-2.084;2022-07-17T03:14:55;10.88;;;5.90;;
64282;SDS011;50497;50.720;-2.084;2022-07-17T03:17:21;10.77;;;6.38;;
64282;SDS011;50497;50.720;-2.084;2022-07-17T03:19:46;11.07;;;6.00;;
64282;SDS011;50497;50.720;-2.084;2022-07-17T03:22:12;10.02;;;5.93;;
64282;SDS011;50497;50.720;-2.084;2022-07-17T03:24:38;10.93;;;6.32;;
64282;SDS011;50497;50.720;-2.084;2022-07-17T03:27:03;10.43;;;6.18;;
64282;SDS011;50497;50.720;-2.084;2022-07-17T03:29:29;13.25;;;7.13;;
64282;SDS011;50497;50.720;-2.084;2022-07-17T03:31:54;11.55;;;6.22;;
64282;SDS011;50497;50.720;-2.084;2022-07-17T03:34:20;10.52;;;6.22;;
64282;SDS011;50497;50.720;-2.084;2022-07-17T03:36:45;10.18;;;6.00;;
64282;SDS011;50497;50.720;-2.084;2022-07-17T03:39:12;12.07;;;6.32;;
64282;SDS011;50497;50.720;-2.084;2022-07-17T03:41:37;10.48;;;6.55;;
64282;SDS011;50497;50.720;-2.084;2022-07-17T03:44:03;10.75;;;6.00;;
64282;SDS011;50497;50.720;-2.084;2022-07-17T03:46:30;9.75;;;5.70;;
64282;SDS011;50497;50.720;-2.084;2022-07-17T03:48:56;11.90;;;6.53;;
64282;SDS011;50497;50.720;-2.084;2022-07-17T03:51:21;10.95;;;5.90;;
64282;SDS011;50497;50.720;-2.084;2022-07-17T03:53:47;10.80;;;5.70;;
64282;SDS011;50497;50.720;-2.084;2022-07-17T03:56:13;10.32;;;5.50;;
64282;SDS011;50497;50.720;-2.084;2022-07-17T03:58:39;10.77;;;5.47;;
64282;SDS011;50497;50.720;-2.084;2022-07-17T04:01:05;8.82;;;5.32;;
64282;SDS011;50497;50.720;-2.084;2022-07-17T04:03:30;9.93;;;5.78;;
64282;SDS011;50497;50.720;-2.084;2022-07-17T04:05:56;10.63;;;6.13;;
64282;SDS011;50497;50.720;-2.084;2022-07-17T04:08:22;9.52;;;5.50;;
64282;SDS011;50497;50.720;-2.084;2022-07-17T04:10:48;11.25;;;5.45;;
64282;SDS011;50497;50.720;-2.084;2022-07-17T04:13:13;9.23;;;5.25;;
64282;SDS011;50497;50.720;-2.084;2022-07-17T04:15:39;9.15;;;4.90;;
64282;SDS011;50497;50.720;-2.084;2022-07-17T04:18:26;9.43;;;4.93;;
64282;SDS011;50497;50.720;-2.084;2022-07-17T04:20:55;8.80;;;5.00;;
64282;SDS011;50497;50.720;-2.084;2022-07-17T04:23:22;9.50;;;4.80;;
64282;SDS011;50497;50.720;-2.084;2022-07-17T04:25:48;10.88;;;4.97;;
64282;SDS011;50497;50.720;-2.084;2022-07-17T04:28:14;8.80;;;4.80;;
64282;SDS011;50497;50.720;-2.084;2022-07-17T04:30:40;9.48;;;4.63;;
64282;SDS011;50497;50.720;-2.084;2022-07-17T04:33:06;9.25;;;4.75;;
64282;SDS011;50497;50.720;-2.084;2022-07-17T04:35:32;8.18;;;4.93;;
64282;SDS011;50497;50.720;-2.084;2022-07-17T04:37:58;8.98;;;4.72;;
64282;SDS011;50497;50.720;-2.084;2022-07-17T04:40:24;9.73;;;4.65;;
64282;SDS011;50497;50.720;-2.084;2022-07-17T04:42:49;8.30;;;4.65;;
64282;SDS011;50497;50.720;-2.084;2022-07-17T04:45:15;8.13;;;4.40;;
64282;SDS011;50497;50.720;-2.084;2022-07-17T04:47:44;9.60;;;4.70;;
64282;SDS011;50497;50.720;-2.084;2022-07-17T04:57:26;10.40;;;4.30;;
64282;SDS011;50497;50.720;-2.084;2022-07-17T04:59:52;9.20;;;4.10;;
64282;SDS011;50497;50.720;-2.084;2022-07-17T05:02:17;10.88;;;4.55;;
64282;SDS011;50497;50.720;-2.084;2022-07-17T05:04:43;10.55;;;4.88;;
64282;SDS011;50497;50.720;-2.084;2022-07-17T05:07:09;9.57;;;4.75;;
64282;SDS011;50497;50.720;-2.084;2022-07-17T05:09:34;9.40;;;4.63;;
64282;SDS011;50497;50.720;-2.084;2022-07-17T05:12:00;9.85;;;5.00;;
64282;SDS011;50497;50.720;-2.084;2022-07-17T05:14:26;11.70;;;5.35;;
64282;SDS011;50497;50.720;-2.084;2022-07-17T05:16:57;11.57;;;5.40;;
64282;SDS011;50497;50.720;-2.084;2022-07-17T05:19:23;10.00;;;4.95;;
64282;SDS011;50497;50.720;-2.084;2022-07-17T05:21:53;8.23;;;4.85;;
64282;SDS011;50497;50.720;-2.084;2022-07-17T05:24:22;11.63;;;5.53;;
64282;SDS011;50497;50.720;-2.084;2022-07-17T05:26:48;11.23;;;5.03;;
64282;SDS011;50497;50.720;-2.084;2022-07-17T05:29:13;7.55;;;4.32;;
64282;SDS011;50497;50.720;-2.084;2022-07-17T05:31:39;10.65;;;5.30;;
64282;SDS011;50497;50.720;-2.084;2022-07-17T05:34:05;9.35;;;4.78;;
64282;SDS011;50497;50.720;-2.084;2022-07-17T05:36:30;7.97;;;4.10;;
64282;SDS011;50497;50.720;-2.084;2022-07-17T05:38:56;7.97;;;4.57;;
64282;SDS011;50497;50.720;-2.084;2022-07-17T05:41:22;9.10;;;4.40;;
64282;SDS011;50497;50.720;-2.084;2022-07-17T05:43:47;10.32;;;4.68;;
64282;SDS011;50497;50.720;-2.084;2022-07-17T05:46:13;11.23;;;4.88;;
64282;SDS011;50497;50.720;-2.084;2022-07-17T05:48:38;9.52;;;4.45;;
64282;SDS011;50497;50.720;-2.084;2022-07-17T05:51:04;8.60;;;4.45;;
64282;SDS011;50497;50.720;-2.084;2022-07-17T05:53:30;8.45;;;4.65;;
64282;SDS011;50497;50.720;-2.084;2022-07-17T05:55:55;7.88;;;4.57;;
64282;SDS011;50497;50.720;-2.084;2022-07-17T05:58:21;9.68;;;4.28;;
64282;SDS011;50497;50.720;-2.084;2022-07-17T06:00:47;9.13;;;4.35;;
64282;SDS011;50497;50.720;-2.084;2022-07-17T06:03:14;9.43;;;4.35;;
64282;SDS011;50497;50.720;-2.084;2022-07-17T06:05:40;8.68;;;4.72;;
64282;SDS011;50497;50.720;-2.084;2022-07-17T06:08:06;10.50;;;5.00;;
64282;SDS011;50497;50.720;-2.084;2022-07-17T06:12:57;8.35;;;4.63;;
64282;SDS011;50497;50.720;-2.084;2022-07-17T06:15:23;13.57;;;4.10;;
64282;SDS011;50497;50.720;-2.084;2022-07-17T06:20:15;7.15;;;3.88;;
64282;SDS011;50497;50.720;-2.084;2022-07-17T06:22:42;9.32;;;4.22;;
64282;SDS011;50497;50.720;-2.084;2022-07-17T06:25:08;7.65;;;4.00;;
64282;SDS011;50497;50.720;-2.084;2022-07-17T06:27:35;6.57;;;3.50;;
64282;SDS011;50497;50.720;-2.084;2022-07-17T06:30:01;6.55;;;3.60;;
64282;SDS011;50497;50.720;-2.084;2022-07-17T06:32:26;7.93;;;3.42;;
64282;SDS011;50497;50.720;-2.084;2022-07-17T06:34:52;6.40;;;3.40;;
64282;SDS011;50497;50.720;-2.084;2022-07-17T06:37:18;8.52;;;3.63;;
64282;SDS011;50497;50.720;-2.084;2022-07-17T06:39:44;7.10;;;3.70;;
64282;SDS011;50497;50.720;-2.084;2022-07-17T06:42:09;7.45;;;3.60;;
64282;SDS011;50497;50.720;-2.084;2022-07-17T06:44:37;8.32;;;3.58;;
64282;SDS011;50497;50.720;-2.084;2022-07-17T06:47:07;6.80;;;3.33;;
64282;SDS011;50497;50.720;-2.084;2022-07-17T06:49:39;6.53;;;3.40;;
64282;SDS011;50497;50.720;-2.084;2022-07-17T06:52:12;7.30;;;3.70;;
64282;SDS011;50497;50.720;-2.084;2022-07-17T06:54:42;5.50;;;3.30;;
64282;SDS011;50497;50.720;-2.084;2022-07-17T06:57:08;7.95;;;3.47;;
64282;SDS011;50497;50.720;-2.084;2022-07-17T06:59:34;7.30;;;3.15;;
64282;SDS011;50497;50.720;-2.084;2022-07-17T07:02:02;9.65;;;3.33;;
64282;SDS011;50497;50.720;-2.084;2022-07-17T07:04:29;8.02;;;3.20;;
64282;SDS011;50497;50.720;-2.084;2022-07-17T07:06:59;8.13;;;3.40;;
64282;SDS011;50497;50.720;-2.084;2022-07-17T07:09:24;7.03;;;2.92;;
64282;SDS011;50497;50.720;-2.084;2022-07-17T07:11:50;6.82;;;3.20;;
64282;SDS011;50497;50.720;-2.084;2022-07-17T07:14:16;6.22;;;2.83;;
64282;SDS011;50497;50.720;-2.084;2022-07-17T07:16:43;7.28;;;3.08;;
64282;SDS011;50497;50.720;-2.084;2022-07-17T07:19:09;7.93;;;3.15;;
64282;SDS011;50497;50.720;-2.084;2022-07-17T07:21:34;6.68;;;2.92;;
64282;SDS011;50497;50.720;-2.084;2022-07-17T07:24:00;8.07;;;2.80;;
64282;SDS011;50497;50.720;-2.084;2022-07-17T07:26:26;6.82;;;3.10;;
64282;SDS011;50497;50.720;-2.084;2022-07-17T07:28:52;7.78;;;2.80;;
64282;SDS011;50497;50.720;-2.084;2022-07-17T07:31:18;9.30;;;3.08;;
64282;SDS011;50497;50.720;-2.084;2022-07-17T07:33:44;6.25;;;2.65;;
64282;SDS011;50497;50.720;-2.084;2022-07-17T07:36:10;6.63;;;2.83;;
64282;SDS011;50497;50.720;-2.084;2022-07-17T07:38:36;7.50;;;2.63;;
64282;SDS011;50497;50.720;-2.084;2022-07-17T07:41:01;6.30;;;2.50;;
64282;SDS011;50497;50.720;-2.084;2022-07-17T07:43:27;5.65;;;2.70;;
64282;SDS011;50497;50.720;-2.084;2022-07-17T07:45:53;6.75;;;2.35;;
64282;SDS011;50497;50.720;-2.084;2022-07-17T07:48:18;7.68;;;3.00;;
64282;SDS011;50497;50.720;-2.084;2022-07-17T07:50:44;7.80;;;2.60;;
64282;SDS011;50497;50.720;-2.084;2022-07-17T07:53:09;6.80;;;2.80;;
64282;SDS011;50497;50.720;-2.084;2022-07-17T07:55:35;7.80;;;2.60;;
64282;SDS011;50497;50.720;-2.084;2022-07-17T07:58:04;9.40;;;2.70;;
64282;SDS011;50497;50.720;-2.084;2022-07-17T08:00:31;6.32;;;2.45;;
64282;SDS011;50497;50.720;-2.084;2022-07-17T08:02:57;7.22;;;2.60;;
64282;SDS011;50497;50.720;-2.084;2022-07-17T08:05:22;11.30;;;2.88;;
64282;SDS011;50497;50.720;-2.084;2022-07-17T08:07:48;7.15;;;2.53;;
64282;SDS011;50497;50.720;-2.084;2022-07-17T08:10:14;8.18;;;2.70;;
64282;SDS011;50497;50.720;-2.084;2022-07-17T08:12:39;6.13;;;2.45;;
64282;SDS011;50497;50.720;-2.084;2022-07-17T08:15:05;7.75;;;2.90;;
64282;SDS011;50497;50.720;-2.084;2022-07-17T08:17:35;7.60;;;2.60;;
64282;SDS011;50497;50.720;-2.084;2022-07-17T08:20:05;5.32;;;2.45;;
64282;SDS011;50497;50.720;-2.084;2022-07-17T08:22:32;7.45;;;2.70;;
64282;SDS011;50497;50.720;-2.084;2022-07-17T08:24:57;7.13;;;2.63;;
64282;SDS011;50497;50.720;-2.084;2022-07-17T08:27:23;6.30;;;2.45;;
64282;SDS011;50497;50.720;-2.084;2022-07-17T08:29:49;5.95;;;2.70;;
64282;SDS011;50497;50.720;-2.084;2022-07-17T08:32:15;6.25;;;2.58;;
64282;SDS011;50497;50.720;-2.084;2022-07-17T08:34:41;6.53;;;2.60;;
64282;SDS011;50497;50.720;-2.084;2022-07-17T08:37:07;5.75;;;2.63;;
64282;SDS011;50497;50.720;-2.084;2022-07-17T08:39:33;5.60;;;2.40;;
64282;SDS011;50497;50.720;-2.084;2022-07-17T08:41:58;6.30;;;2.78;;
64282;SDS011;50497;50.720;-2.084;2022-07-17T08:44:26;5.53;;;2.45;;
64282;SDS011;50497;50.720;-2.084;2022-07-17T08:46:52;6.40;;;2.50;;
64282;SDS011;50497;50.720;-2.084;2022-07-17T08:49:22;6.65;;;2.38;;
64282;SDS011;50497;50.720;-2.084;2022-07-17T08:51:49;6.30;;;2.42;;
64282;SDS011;50497;50.720;-2.084;2022-07-17T08:54:14;7.32;;;2.65;;
64282;SDS011;50497;50.720;-2.084;2022-07-17T08:56:41;8.73;;;2.78;;
64282;SDS011;50497;50.720;-2.084;2022-07-17T08:59:07;6.53;;;2.67;;
64282;SDS011;50497;50.720;-2.084;2022-07-17T09:01:32;5.90;;;2.72;;
64282;SDS011;50497;50.720;-2.084;2022-07-17T09:03:59;6.90;;;2.63;;
64282;SDS011;50497;50.720;-2.084;2022-07-17T09:06:31;7.97;;;2.40;;
64282;SDS011;50497;50.720;-2.084;2022-07-17T09:11:41;5.80;;;2.60;;
64282;SDS011;50497;50.720;-2.084;2022-07-17T09:14:18;7.13;;;2.42;;
64282;SDS011;50497;50.720;-2.084;2022-07-17T09:16:52;7.53;;;2.55;;
64282;SDS011;50497;50.720;-2.084;2022-07-17T09:19:25;7.25;;;2.67;;
64282;SDS011;50497;50.720;-2.084;2022-07-17T09:22:08;6.75;;;2.90;;
64282;SDS011;50497;50.720;-2.084;2022-07-17T09:27:12;6.90;;;2.60;;
64282;SDS011;50497;50.720;-2.084;2022-07-17T09:29:53;7.93;;;2.72;;
64282;SDS011;50497;50.720;-2.084;2022-07-17T09:32:26;6.13;;;2.83;;
64282;SDS011;50497;50.720;-2.084;2022-07-17T09:34:54;6.78;;;2.63;;
64282;SDS011;50497;50.720;-2.084;2022-07-17T09:37:23;6.15;;;2.58;;
64282;SDS011;50497;50.720;-2.084;2022-07-17T09:39:50;7.82;;;2.65;;
64282;SDS011;50497;50.720;-2.084;2022-07-17T09:42:23;7.07;;;2.47;;
64282;SDS011;50497;50.720;-2.084;2022-07-17T09:44:59;7.95;;;2.75;;
64282;SDS011;50497;50.720;-2.084;2022-07-17T09:47:28;6.25;;;2.60;;
64282;SDS011;50497;50.720;-2.084;2022-07-17T09:49:55;5.65;;;2.53;;
64282;SDS011;50497;50.720;-2.084;2022-07-17T09:52:23;9.63;;;3.00;;
64282;SDS011;50497;50.720;-2.084;2022-07-17T09:54:51;6.95;;;2.67;;
64282;SDS011;50497;50.720;-2.084;2022-07-17T09:57:20;6.82;;;2.70;;
64282;SDS011;50497;50.720;-2.084;2022-07-17T09:59:49;6.85;;;2.85;;
64282;SDS011;50497;50.720;-2.084;2022-07-17T10:02:16;7.53;;;2.80;;
64282;SDS011;50497;50.720;-2.084;2022-07-17T10:04:42;9.43;;;2.70;;
64282;SDS011;50497;50.720;-2.084;2022-07-17T10:07:08;6.32;;;2.72;;
64282;SDS011;50497;50.720;-2.084;2022-07-17T10:09:34;6.70;;;3.10;;
64282;SDS011;50497;50.720;-2.084;2022-07-17T10:12:00;6.75;;;2.83;;
64282;SDS011;50497;50.720;-2.084;2022-07-17T10:14:30;5.55;;;2.70;;
64282;SDS011;50497;50.720;-2.084;2022-07-17T10:17:10;9.63;;;2.90;;
64282;SDS011;50497;50.720;-2.084;2022-07-17T10:19:59;6.35;;;2.60;;
64282;SDS011;50497;50.720;-2.084;2022-07-17T10:22:25;7.03;;;2.65;;
64282;SDS011;50497;50.720;-2.084;2022-07-17T10:24:52;7.28;;;3.03;;
64282;SDS011;50497;50.720;-2.084;2022-07-17T10:27:22;7.03;;;3.03;;
64282;SDS011;50497;50.720;-2.084;2022-07-17T10:30:01;5.53;;;2.55;;
64282;SDS011;50497;50.720;-2.084;2022-07-17T10:32:32;8.07;;;2.95;;
64282;SDS011;50497;50.720;-2.084;2022-07-17T10:34:59;5.95;;;2.75;;
64282;SDS011;50497;50.720;-2.084;2022-07-17T10:42:39;5.97;;;2.63;;
64282;SDS011;50497;50.720;-2.084;2022-07-17T10:45:07;6.20;;;2.83;;
64282;SDS011;50497;50.720;-2.084;2022-07-17T10:50:22;6.93;;;2.67;;
64282;SDS011;50497;50.720;-2.084;2022-07-17T10:53:35;6.25;;;2.65;;
64282;SDS011;50497;50.720;-2.084;2022-07-17T10:56:04;6.75;;;2.80;;
64282;SDS011;50497;50.720;-2.084;2022-07-17T11:01:04;6.32;;;2.80;;
64282;SDS011;50497;50.720;-2.084;2022-07-17T11:03:35;5.90;;;2.80;;
64282;SDS011;50497;50.720;-2.084;2022-07-17T11:06:10;6.75;;;2.72;;
64282;SDS011;50497;50.720;-2.084;2022-07-17T11:08:51;8.20;;;2.65;;
64282;SDS011;50497;50.720;-2.084;2022-07-17T11:11:17;5.88;;;2.85;;
64282;SDS011;50497;50.720;-2.084;2022-07-17T11:13:48;8.85;;;3.00;;
64282;SDS011;50497;50.720;-2.084;2022-07-17T11:16:27;5.70;;;2.60;;
64282;SDS011;50497;50.720;-2.084;2022-07-17T11:18:54;9.52;;;2.90;;
64282;SDS011;50497;50.720;-2.084;2022-07-17T11:21:21;7.05;;;2.60;;
64282;SDS011;50497;50.720;-2.084;2022-07-17T11:23:50;6.15;;;2.80;;
64282;SDS011;50497;50.720;-2.084;2022-07-17T11:26:18;6.55;;;2.83;;
64282;SDS011;50497;50.720;-2.084;2022-07-17T11:28:45;6.10;;;2.88;;
64282;SDS011;50497;50.720;-2.084;2022-07-17T11:31:23;8.13;;;2.90;;
64282;SDS011;50497;50.720;-2.084;2022-07-17T11:33:54;6.95;;;2.63;;
64282;SDS011;50497;50.720;-2.084;2022-07-17T11:36:28;5.97;;;2.63;;
64282;SDS011;50497;50.720;-2.084;2022-07-17T11:38:59;6.82;;;2.70;;
64282;SDS011;50497;50.720;-2.084;2022-07-17T11:41:37;7.07;;;2.70;;
64282;SDS011;50497;50.720;-2.084;2022-07-17T11:44:04;6.68;;;2.90;;
64282;SDS011;50497;50.720;-2.084;2022-07-17T11:46:35;6.57;;;2.83;;
64282;SDS011;50497;50.720;-2.084;2022-07-17T11:49:10;7.05;;;2.90;;
64282;SDS011;50497;50.720;-2.084;2022-07-17T11:51:37;7.18;;;2.90;;
64282;SDS011;50497;50.720;-2.084;2022-07-17T11:54:18;9.15;;;3.13;;
64282;SDS011;50497;50.720;-2.084;2022-07-17T11:56:56;5.88;;;2.75;;
64282;SDS011;50497;50.720;-2.084;2022-07-17T11:59:32;5.63;;;2.75;;
64282;SDS011;50497;50.720;-2.084;2022-07-17T12:02:11;6.63;;;2.72;;
64282;SDS011;50497;50.720;-2.084;2022-07-17T12:04:48;6.75;;;2.70;;
64282;SDS011;50497;50.720;-2.084;2022-07-17T12:07:18;6.80;;;2.63;;
64282;SDS011;50497;50.720;-2.084;2022-07-17T12:09:44;6.47;;;2.38;;
64282;SDS011;50497;50.720;-2.084;2022-07-17T12:12:20;7.65;;;2.70;;
64282;SDS011;50497;50.720;-2.084;2022-07-17T12:14:57;6.50;;;2.60;;
64282;SDS011;50497;50.720;-2.084;2022-07-17T12:17:24;8.05;;;2.90;;
64282;SDS011;50497;50.720;-2.084;2022-07-17T12:20:04;7.32;;;2.70;;
64282;SDS011;50497;50.720;-2.084;2022-07-17T12:22:44;6.45;;;2.80;;
64282;SDS011;50497;50.720;-2.084;2022-07-17T12:25:21;9.05;;;2.83;;
64282;SDS011;50497;50.720;-2.084;2022-07-17T12:27:52;7.07;;;2.60;;
64282;SDS011;50497;50.720;-2.084;2022-07-17T12:30:22;6.78;;;3.05;;
64282;SDS011;50497;50.720;-2.084;2022-07-17T12:32:52;6.10;;;2.75;;
64282;SDS011;50497;50.720;-2.084;2022-07-17T12:35:23;6.72;;;2.72;;
64282;SDS011;50497;50.720;-2.084;2022-07-17T12:37:49;6.75;;;2.53;;
64282;SDS011;50497;50.720;-2.084;2022-07-17T12:40:15;7.60;;;2.65;;
64282;SDS011;50497;50.720;-2.084;2022-07-17T12:42:40;5.47;;;2.70;;
64282;SDS011;50497;50.720;-2.084;2022-07-17T12:45:08;7.93;;;3.10;;
64282;SDS011;50497;50.720;-2.084;2022-07-17T12:47:35;7.63;;;2.65;;
64282;SDS011;50497;50.720;-2.084;2022-07-17T12:50:00;6.45;;;2.58;;
64282;SDS011;50497;50.720;-2.084;2022-07-17T12:52:26;7.32;;;2.70;;
64282;SDS011;50497;50.720;-2.084;2022-07-17T12:54:51;6.60;;;2.90;;
64282;SDS011;50497;50.720;-2.084;2022-07-17T12:57:17;5.85;;;2.58;;
64282;SDS011;50497;50.720;-2.084;2022-07-17T12:59:43;6.88;;;2.50;;
64282;SDS011;50497;50.720;-2.084;2022-07-17T13:02:09;5.85;;;2.30;;
64282;SDS011;50497;50.720;-2.084;2022-07-17T13:04:34;6.15;;;2.50;;
64282;SDS011;50497;50.720;-2.084;2022-07-17T13:07:00;6.57;;;2.42;;
64282;SDS011;50497;50.720;-2.084;2022-07-17T13:09:26;6.03;;;2.60;;
64282;SDS011;50497;50.720;-2.084;2022-07-17T13:11:52;7.22;;;2.40;;
64282;SDS011;50497;50.720;-2.084;2022-07-17T13:14:17;5.00;;;2.30;;
64282;SDS011;50497;50.720;-2.084;2022-07-17T13:16:43;7.93;;;2.60;;
64282;SDS011;50497;50.720;-2.084;2022-07-17T13:19:09;5.18;;;2.47;;
64282;SDS011;50497;50.720;-2.084;2022-07-17T13:21:34;5.68;;;2.58;;
64282;SDS011;50497;50.720;-2.084;2022-07-17T13:24:00;6.20;;;2.60;;
64282;SDS011;50497;50.720;-2.084;2022-07-17T13:26:26;6.38;;;2.60;;
64282;SDS011;50497;50.720;-2.084;2022-07-17T13:28:52;5.47;;;2.50;;
64282;SDS011;50497;50.720;-2.084;2022-07-17T13:31:17;5.05;;;2.40;;
64282;SDS011;50497;50.720;-2.084;2022-07-17T13:33:43;7.47;;;2.58;;
64282;SDS011;50497;50.720;-2.084;2022-07-17T13:36:09;7.60;;;2.40;;
64282;SDS011;50497;50.720;-2.084;2022-07-17T13:38:35;4.75;;;2.35;;
64282;SDS011;50497;50.720;-2.084;2022-07-17T13:41:00;5.50;;;2.38;;
64282;SDS011;50497;50.720;-2.084;2022-07-17T13:43:26;5.03;;;2.28;;
64282;SDS011;50497;50.720;-2.084;2022-07-17T13:45:51;5.28;;;2.13;;
64282;SDS011;50497;50.720;-2.084;2022-07-17T13:48:17;5.72;;;2.40;;
64282;SDS011;50497;50.720;-2.084;2022-07-17T13:50:43;5.07;;;2.33;;
64282;SDS011;50497;50.720;-2.084;2022-07-17T13:53:09;4.90;;;2.35;;
64282;SDS011;50497;50.720;-2.084;2022-07-17T13:55:36;5.13;;;2.20;;
64282;SDS011;50497;50.720;-2.084;2022-07-17T13:58:02;4.90;;;2.30;;
64282;SDS011;50497;50.720;-2.084;2022-07-17T14:00:28;7.05;;;2.60;;
64282;SDS011;50497;50.720;-2.084;2022-07-17T14:02:53;5.07;;;2.30;;
64282;SDS011;50497;50.720;-2.084;2022-07-17T14:05:20;6.85;;;2.40;;
64282;SDS011;50497;50.720;-2.084;2022-07-17T14:07:45;6.25;;;2.30;;
64282;SDS011;50497;50.720;-2.084;2022-07-17T14:10:11;5.35;;;2.38;;
64282;SDS011;50497;50.720;-2.084;2022-07-17T14:12:37;5.82;;;2.30;;
64282;SDS011;50497;50.720;-2.084;2022-07-17T14:15:02;5.68;;;2.13;;
64282;SDS011;50497;50.720;-2.084;2022-07-17T14:17:29;5.88;;;2.40;;
64282;SDS011;50497;50.720;-2.084;2022-07-17T14:19:54;7.30;;;2.50;;
64282;SDS011;50497;50.720;-2.084;2022-07-17T14:22:20;5.30;;;2.30;;
64282;SDS011;50497;50.720;-2.084;2022-07-17T14:24:46;5.53;;;2.30;;
64282;SDS011;50497;50.720;-2.084;2022-07-17T14:27:12;7.43;;;2.75;;
64282;SDS011;50497;50.720;-2.084;2022-07-17T14:29:37;5.93;;;2.50;;
64282;SDS011;50497;50.720;-2.084;2022-07-17T14:32:03;6.05;;;2.47;;
64282;SDS011;50497;50.720;-2.084;2022-07-17T14:34:29;6.50;;;2.25;;
64282;SDS011;50497;50.720;-2.084;2022-07-17T14:36:55;5.05;;;2.20;;
64282;SDS011;50497;50.720;-2.084;2022-07-17T14:39:20;5.35;;;2.35;;
64282;SDS011;50497;50.720;-2.084;2022-07-17T14:41:46;5.53;;;2.10;;
64282;SDS011;50497;50.720;-2.084;2022-07-17T14:44:12;5.85;;;1.92;;
64282;SDS011;50497;50.720;-2.084;2022-07-17T14:46:39;5.20;;;2.35;;
64282;SDS011;50497;50.720;-2.084;2022-07-17T14:49:05;5.30;;;2.20;;
64282;SDS011;50497;50.720;-2.084;2022-07-17T14:51:30;5.75;;;2.13;;
64282;SDS011;50497;50.720;-2.084;2022-07-17T14:53:56;4.75;;;2.10;;
64282;SDS011;50497;50.720;-2.084;2022-07-17T14:56:23;4.43;;;1.98;;
64282;SDS011;50497;50.720;-2.084;2022-07-17T14:58:48;6.20;;;2.30;;
64282;SDS011;50497;50.720;-2.084;2022-07-17T15:01:14;5.30;;;1.90;;
64282;SDS011;50497;50.720;-2.084;2022-07-17T15:03:39;5.90;;;1.92;;
64282;SDS011;50497;50.720;-2.084;2022-07-17T15:06:05;5.00;;;2.20;;